Time;durP1;ratioP1;P1;durP2;ratioP2;P2;SDS_P1;SDS_P2;PMS_P1;PMS_P2;Temp;Humidity;BMP_temperature;BMP_pressure;BME280_temperature;BME280_humidity;BME280_pressure;Samples;Min_cycle;Max_cycle;Signal;HPM_P1;HPM_P2
2022/03/02 00:01:59;;;;;;;32.97;10.98;;;;;;;-2.94;58.05;101140.25;5051986;28;20110;-78
2022/03/02 00:04:26;;;;;;;29.77;10.50;;;;;;;-2.81;57.95;101177.91;5052929;28;20459;-77
2022/03/02 00:06:53;;;;;;;31.52;11.20;;;;;;;-2.86;58.32;101171.56;5056235;28;20067;-77
2022/03/02 00:09:20;;;;;;;25.52;11.25;;;;;;;-2.87;58.64;101182.53;5054018;28;20049;-76
2022/03/02 00:11:47;;;;;;;30.60;11.75;;;;;;;-2.91;58.51;101162.63;5044421;28;20095;-76
2022/03/02 00:14:14;;;;;;;25.95;11.38;;;;;;;-2.92;58.65;101163.41;5036303;28;20456;-76
2022/03/02 00:16:41;;;;;;;29.63;11.02;;;;;;;-3.05;58.98;101161.56;5036216;28;20092;-78
2022/03/02 00:19:09;;;;;;;25.52;11.13;;;;;;;-3.00;58.83;101177.25;5035019;28;20060;-77
2022/03/02 00:21:36;;;;;;;27.50;12.25;;;;;;;-3.10;59.38;101161.19;5036486;28;20095;-79
2022/03/02 00:24:04;;;;;;;34.15;11.60;;;;;;;-3.02;59.35;101164.34;5036082;28;20060;-78
2022/03/02 00:26:31;;;;;;;27.90;11.80;;;;;;;-3.21;59.19;101145.78;5036506;28;20107;-78
2022/03/02 00:28:59;;;;;;;25.25;10.90;;;;;;;-3.10;59.64;101161.19;5048839;28;20417;-79
2022/03/02 00:31:27;;;;;;;28.58;11.75;;;;;;;-3.11;59.63;101161.94;5056148;28;20056;-79
2022/03/02 00:33:54;;;;;;;31.23;12.35;;;;;;;-3.13;59.89;101175.38;5056260;28;20538;-77
2022/03/02 00:36:21;;;;;;;30.30;12.27;;;;;;;-3.16;59.85;101170.94;5056435;28;20049;-78
2022/03/02 00:38:48;;;;;;;36.35;14.85;;;;;;;-3.19;60.44;101150.22;5056001;28;20057;-78
2022/03/02 00:41:15;;;;;;;33.47;12.98;;;;;;;-3.23;60.41;101160.97;5056181;28;20144;-77
2022/03/02 00:43:42;;;;;;;34.45;14.23;;;;;;;-3.26;60.64;101165.84;5056101;28;20528;-79
2022/03/02 00:46:10;;;;;;;37.70;14.65;;;;;;;-3.61;60.86;101097.53;5056200;28;20084;-77
2022/03/02 00:48:37;;;;;;;38.00;15.70;;;;;;;-3.25;61.05;101159.06;5056831;28;20063;-77
2022/03/02 00:51:04;;;;;;;36.80;14.95;;;;;;;-3.31;61.23;101154.38;5059554;28;20449;-77
2022/03/02 00:53:35;;;;;;;45.03;16.48;;;;;;;-3.24;61.02;101142.97;5072596;28;20424;-75
2022/03/02 00:56:02;;;;;;;38.10;16.70;;;;;;;-3.25;61.28;101149.72;5074319;28;20053;-77
2022/03/02 00:58:30;;;;;;;37.78;15.73;;;;;;;-3.24;61.41;101148.09;5059708;28;20055;-78
2022/03/02 01:00:57;;;;;;;42.97;16.67;;;;;;;-3.23;61.36;101155.84;5054995;28;20076;-77
2022/03/02 01:03:24;;;;;;;42.17;17.63;;;;;;;-3.19;61.54;101157.00;5055744;28;20084;-76
2022/03/02 01:05:51;;;;;;;39.70;17.05;;;;;;;-3.23;61.85;101145.63;5055015;28;20056;-77
2022/03/02 01:08:18;;;;;;;42.53;17.40;;;;;;;-3.20;61.74;101147.56;5055174;28;20494;-78
2022/03/02 01:10:44;;;;;;;45.58;19.27;;;;;;;-3.17;61.76;101147.78;5055471;28;20072;-77
2022/03/02 01:13:11;;;;;;;45.90;19.23;;;;;;;-3.14;61.83;101151.50;5054967;28;20049;-78
2022/03/02 01:15:38;;;;;;;46.75;19.35;;;;;;;-3.16;61.65;101153.03;5054252;28;20106;-77
2022/03/02 01:18:05;;;;;;;41.67;17.80;;;;;;;-3.23;61.95;101155.84;5055283;28;20451;-76
2022/03/02 01:20:32;;;;;;;44.38;17.05;;;;;;;-3.26;61.90;101154.75;5054914;28;20057;-77
2022/03/02 01:22:59;;;;;;;33.35;15.00;;;;;;;-3.37;61.67;101139.44;5054680;28;20390;-77
2022/03/02 01:25:26;;;;;;;32.45;13.43;;;;;;;-3.29;61.47;101147.75;5054965;28;20049;-77
2022/03/02 01:27:53;;;;;;;37.00;12.35;;;;;;;-3.36;61.58;101150.56;5054811;28;20075;-77
2022/03/02 01:30:20;;;;;;;35.40;12.95;;;;;;;-3.46;61.50;101146.41;5055088;28;20084;-78
2022/03/02 01:32:47;;;;;;;33.90;13.10;;;;;;;-3.51;61.46;101138.38;5054290;28;20425;-78
2022/03/02 01:35:14;;;;;;;42.63;14.23;;;;;;;-3.46;61.29;101135.25;5054644;28;20064;-78
2022/03/02 01:37:42;;;;;;;34.10;12.48;;;;;;;-3.46;61.49;101150.59;5054553;28;20057;-78
2022/03/02 01:40:09;;;;;;;35.60;12.30;;;;;;;-3.50;61.24;101154.59;5054418;28;20049;-78
2022/03/02 01:42:39;;;;;;;31.70;13.93;;;;;;;-3.59;61.56;101133.38;5050530;28;20041;-77
2022/03/02 01:45:07;;;;;;;37.95;13.55;;;;;;;-3.59;61.49;101112.94;5038107;28;20049;-77
2022/03/02 01:47:35;;;;;;;31.67;13.40;;;;;;;-3.62;61.17;101112.72;5054397;28;20053;-77
2022/03/02 01:50:07;;;;;;;33.83;13.10;;;;;;;-3.75;61.47;101092.97;5054358;28;20045;-76
2022/03/02 01:52:34;;;;;;;32.63;13.00;;;;;;;-3.96;61.53;101080.28;5053319;28;20504;-78
2022/03/02 01:55:01;;;;;;;40.85;14.18;;;;;;;-3.67;61.68;101098.72;5053037;28;20052;-78
2022/03/02 01:57:29;;;;;;;39.67;14.30;;;;;;;-3.67;61.92;101114.03;5054324;28;20527;-78
2022/03/02 01:59:56;;;;;;;37.80;14.48;;;;;;;-3.76;61.67;101093.75;5053821;28;20041;-78
2022/03/02 02:02:23;;;;;;;35.15;16.33;;;;;;;-3.67;61.99;101096.16;5054059;28;20049;-77
2022/03/02 02:04:50;;;;;;;43.95;15.05;;;;;;;-3.71;62.21;101100.13;5053924;28;20056;-77
2022/03/02 02:07:17;;;;;;;37.08;16.02;;;;;;;-3.75;62.07;101083.63;5054230;28;20060;-77
2022/03/02 02:09:44;;;;;;;36.47;14.60;;;;;;;-3.85;61.85;101070.00;5053810;28;20056;-77
2022/03/02 02:12:11;;;;;;;41.63;15.63;;;;;;;-3.75;61.73;101090.41;5054011;28;20497;-78
2022/03/02 02:14:38;;;;;;;41.78;16.10;;;;;;;-3.77;61.94;101086.84;5053990;28;20056;-77
2022/03/02 02:17:05;;;;;;;37.40;17.50;;;;;;;-3.95;61.91;101053.97;5054238;28;20052;-77
2022/03/02 02:19:32;;;;;;;48.15;17.27;;;;;;;-3.85;61.94;101085.34;5051014;28;20060;-77
2022/03/02 02:21:59;;;;;;;45.55;17.63;;;;;;;-3.87;62.23;101087.78;5041269;28;20151;-77
2022/03/02 02:24:26;;;;;;;44.22;17.88;;;;;;;-4.06;62.39;101053.91;5037948;28;20049;-78
2022/03/02 02:26:54;;;;;;;49.65;18.63;;;;;;;-3.93;62.11;101077.97;5053257;28;20068;-76
2022/03/02 02:29:23;;;;;;;52.00;20.33;;;;;;;-3.89;62.24;101083.31;5051856;28;20057;-77
2022/03/02 02:31:51;;;;;;;38.97;18.65;;;;;;;-3.92;62.51;101074.63;5053486;28;20053;-78
2022/03/02 02:34:18;;;;;;;42.75;17.52;;;;;;;-3.95;62.59;101089.72;5044815;28;20147;-78
2022/03/02 02:36:46;;;;;;;45.58;17.98;;;;;;;-3.94;62.52;101093.16;5033839;28;20081;-77
2022/03/02 02:39:13;;;;;;;51.38;18.42;;;;;;;-4.02;62.97;101061.91;5033470;28;20061;-77
2022/03/02 02:41:40;;;;;;;45.72;19.30;;;;;;;-3.96;62.59;101064.97;5033841;28;20057;-78
2022/03/02 02:44:07;;;;;;;38.50;17.25;;;;;;;-3.89;62.78;101086.78;5033434;28;20073;-78
2022/03/02 02:46:34;;;;;;;38.28;15.98;;;;;;;-3.90;62.67;101082.41;5033473;28;20049;-77
2022/03/02 02:49:01;;;;;;;43.42;17.25;;;;;;;-3.93;62.72;101074.53;5033280;28;20061;-78
2022/03/02 02:51:28;;;;;;;48.58;15.68;;;;;;;-4.03;62.98;101052.47;5034910;28;20045;-77
2022/03/02 02:53:55;;;;;;;45.88;16.17;;;;;;;-3.97;62.81;101058.06;5053035;28;20151;-78
2022/03/02 02:56:22;;;;;;;40.28;16.40;;;;;;;-3.98;62.78;101070.69;5041667;28;20053;-77
2022/03/02 02:58:49;;;;;;;41.13;17.52;;;;;;;-4.03;62.63;101072.00;5053031;28;20052;-78
2022/03/02 03:01:17;;;;;;;41.22;15.10;;;;;;;-4.09;62.97;101067.28;5053037;28;20127;-78
2022/03/02 03:03:44;;;;;;;44.97;17.67;;;;;;;-4.21;62.62;101051.00;5051899;28;20072;-77
2022/03/02 03:06:11;;;;;;;40.97;15.98;;;;;;;-4.10;62.54;101065.50;5053170;28;20126;-77
2022/03/02 03:08:38;;;;;;;55.30;17.75;;;;;;;-4.13;62.33;101052.47;5052975;28;20077;-77
2022/03/02 03:11:05;;;;;;;40.70;15.90;;;;;;;-4.29;62.51;101039.25;5052921;28;20057;-77
2022/03/02 03:13:32;;;;;;;47.97;17.38;;;;;;;-4.19;61.99;101067.31;5053111;28;20443;-77
2022/03/02 03:15:59;;;;;;;49.22;21.67;;;;;;;-4.28;62.10;101048.69;5053053;28;20107;-77
2022/03/02 03:18:26;;;;;;;47.08;19.73;;;;;;;-4.27;62.40;101056.47;5052969;28;20555;-77
2022/03/02 03:20:52;;;;;;;51.53;19.80;;;;;;;-4.28;62.30;101058.91;5053085;28;20049;-77
2022/03/02 03:23:21;;;;;;;49.13;18.13;;;;;;;-4.31;62.26;101046.78;5053188;28;20049;-77
2022/03/02 03:25:48;;;;;;;45.45;17.75;;;;;;;-4.30;62.27;101056.25;5053436;28;20075;-77
2022/03/02 03:28:15;;;;;;;47.92;17.30;;;;;;;-4.45;62.13;101021.81;5049169;28;20118;-77
2022/03/02 03:30:42;;;;;;;46.28;16.80;;;;;;;-4.46;62.47;101025.13;5039761;28;20057;-76
2022/03/02 03:33:09;;;;;;;39.00;16.92;;;;;;;-4.39;62.16;101045.25;5060505;28;20056;-77
2022/03/02 03:35:36;;;;;;;45.15;16.52;;;;;;;-4.42;62.41;101027.16;5042831;28;20099;-76
2022/03/02 03:38:03;;;;;;;46.28;16.67;;;;;;;-4.60;62.68;101008.72;5039246;28;20486;-77
2022/03/02 03:40:30;;;;;;;40.88;16.98;;;;;;;-4.59;62.51;101005.38;5051947;28;20052;-78
2022/03/02 03:42:57;;;;;;;44.25;18.85;;;;;;;-4.43;62.81;101030.47;5036657;28;20053;-79
2022/03/02 03:45:25;;;;;;;47.28;18.13;;;;;;;-4.55;63.09;101009.97;5040401;28;20052;-78
2022/03/02 03:47:53;;;;;;;44.38;17.70;;;;;;;-4.48;62.73;101034.31;5056601;28;20079;-78
2022/03/02 03:50:20;;;;;;;49.10;19.48;;;;;;;-4.57;63.27;101014.94;5056534;28;20049;-77
2022/03/02 03:52:48;;;;;;;46.03;18.05;;;;;;;-4.50;62.97;101023.97;5055775;28;20458;-80
2022/03/02 03:55:15;;;;;;;56.10;17.92;;;;;;;-4.50;63.30;101020.53;5056363;28;20048;-80
2022/03/02 03:57:42;;;;;;;48.22;18.20;;;;;;;-4.53;63.30;101014.44;5056733;28;20513;-78
2022/03/02 04:00:13;;;;;;;48.10;18.00;;;;;;;-4.59;63.21;101006.28;5056538;28;20056;-78
2022/03/02 04:02:40;;;;;;;51.47;18.20;;;;;;;-4.61;62.98;101006.91;5056606;28;20111;-79
2022/03/02 04:05:08;;;;;;;45.03;15.95;;;;;;;-4.57;63.13;101025.13;5056681;28;20056;-80
2022/03/02 04:07:36;;;;;;;39.65;15.88;;;;;;;-4.64;62.95;101017.75;5056579;28;20064;-78
2022/03/02 04:10:04;;;;;;;37.53;16.20;;;;;;;-4.68;62.76;101017.38;5054859;28;20575;-78
2022/03/02 04:12:32;;;;;;;45.13;16.30;;;;;;;-4.67;62.63;101017.50;5057009;28;20045;-78
2022/03/02 04:14:59;;;;;;;44.45;16.73;;;;;;;-4.65;62.60;101027.81;5056535;28;20053;-79
2022/03/02 04:17:26;;;;;;;48.88;15.98;;;;;;;-4.71;62.36;101009.47;5056796;28;20080;-78
2022/03/02 04:19:53;;;;;;;41.95;16.48;;;;;;;-4.70;62.54;101022.34;5056956;28;20462;-79
2022/03/02 04:22:20;;;;;;;63.95;18.17;;;;;;;-4.67;62.54;101027.69;5057935;28;20053;-78
2022/03/02 04:24:47;;;;;;;43.03;18.38;;;;;;;-4.71;62.66;101014.56;5058428;28;20091;-78
2022/03/02 04:27:14;;;;;;;46.00;18.48;;;;;;;-4.70;62.06;101006.16;5058527;28;20460;-76
2022/03/02 04:29:44;;;;;;;42.72;17.35;;;;;;;-4.54;62.62;101027.03;5059341;28;20056;-78
2022/03/02 04:32:12;;;;;;;44.85;17.65;;;;;;;-4.47;62.33;101028.44;5072282;28;20088;-75
2022/03/02 04:34:39;;;;;;;43.35;17.23;;;;;;;-4.43;62.38;101022.81;5070765;28;20061;-76
2022/03/02 04:37:06;;;;;;;40.80;16.60;;;;;;;-4.41;62.36;101004.34;5057598;28;20095;-77
2022/03/02 04:39:33;;;;;;;46.40;17.00;;;;;;;-4.29;62.17;101014.63;5037552;28;20088;-77
2022/03/02 04:42:00;;;;;;;48.58;21.67;;;;;;;-4.42;62.19;100984.69;5050322;28;20132;-77
2022/03/02 04:44:27;;;;;;;51.47;20.05;;;;;;;-4.22;62.09;100976.06;5046133;28;20081;-76
2022/03/02 04:46:54;;;;;;;46.40;20.67;;;;;;;-4.21;62.22;100982.09;5040862;28;20139;-78
2022/03/02 04:49:21;;;;;;;47.15;18.38;;;;;;;-3.96;62.12;100998.59;5036123;28;20508;-77
2022/03/02 04:51:48;;;;;;;60.65;19.27;;;;;;;-3.84;61.93;101000.31;5053999;28;20057;-76
2022/03/02 04:57:03;;;;;;;54.22;21.25;;;;;;;-3.61;61.51;100997.03;5055486;28;20219;-78
2022/03/02 04:59:30;;;;;;;53.88;21.45;;;;;;;-3.52;61.46;101003.72;5055350;28;20053;-78
2022/03/02 05:01:57;;;;;;;56.05;20.50;;;;;;;-3.45;61.21;100994.88;5055330;28;20076;-77
2022/03/02 05:04:26;;;;;;;43.15;18.73;;;;;;;-3.35;61.06;100999.94;5054779;28;20048;-76
2022/03/02 05:06:53;;;;;;;66.60;20.15;;;;;;;-3.30;60.54;100972.16;5054677;28;20468;-79
2022/03/02 05:09:20;;;;;;;52.10;19.25;;;;;;;-3.13;60.56;100982.00;5040686;28;20505;-78
2022/03/02 05:11:50;;;;;;;47.10;20.52;;;;;;;-3.03;60.22;100975.00;5035424;28;20481;-80
2022/03/02 05:14:18;;;;;;;49.88;19.77;;;;;;;-2.91;59.95;100989.59;5042894;28;20075;-79
2022/03/02 05:16:45;;;;;;;58.90;21.48;;;;;;;-2.93;59.68;100963.03;5054914;28;20052;-79
2022/03/02 05:19:12;;;;;;;68.43;21.70;;;;;;;-2.75;59.62;100973.75;5054948;28;20080;-79
2022/03/02 05:21:39;;;;;;;56.60;21.08;;;;;;;-2.49;59.33;100985.91;5053896;28;20052;-78
2022/03/02 05:24:06;;;;;;;54.35;22.50;;;;;;;-2.36;59.09;100974.91;5054855;28;20049;-78
2022/03/02 05:26:33;;;;;;;55.00;21.30;;;;;;;-2.17;58.57;100977.13;5054859;28;20052;-78
2022/03/02 05:29:01;;;;;;;52.22;21.13;;;;;;;-1.96;58.23;100967.50;5054806;28;20053;-77
2022/03/02 05:31:28;;;;;;;54.47;21.20;;;;;;;-1.78;58.05;100984.97;5054464;28;20122;-78
2022/03/02 05:33:55;;;;;;;53.42;21.45;;;;;;;-1.72;57.19;100962.31;5054548;28;20045;-80
2022/03/02 05:36:25;;;;;;;52.55;20.05;;;;;;;-1.56;57.30;100967.75;5054240;28;20137;-80
2022/03/02 05:38:52;;;;;;;52.60;21.13;;;;;;;-1.33;56.53;100969.34;5054876;28;20053;-79
2022/03/02 05:41:20;;;;;;;57.15;20.98;;;;;;;-1.22;56.38;100964.94;5054934;28;20048;-78
2022/03/02 05:43:48;;;;;;;64.45;21.35;;;;;;;-1.20;55.83;100952.25;5053490;28;20147;-77
2022/03/02 05:46:15;;;;;;;52.90;22.67;;;;;;;-1.02;55.49;100975.66;5034092;28;20111;-79
2022/03/02 05:48:42;;;;;;;45.55;19.67;;;;;;;-0.97;55.38;100967.47;5034411;28;20060;-79
2022/03/02 05:51:09;;;;;;;51.42;21.45;;;;;;;-0.93;55.18;100958.31;5034327;28;20056;-78
2022/03/02 05:53:36;;;;;;;54.95;22.65;;;;;;;-0.83;54.79;100963.28;5033020;28;20049;-77
2022/03/02 05:56:04;;;;;;;53.08;21.45;;;;;;;-0.75;54.39;100957.00;5033617;28;20057;-78
2022/03/02 05:58:31;;;;;;;54.83;23.33;;;;;;;-0.62;54.35;100968.94;5039759;28;20528;-78
2022/03/02 06:00:59;;;;;;;49.47;22.73;;;;;;;-0.53;54.20;100949.00;5034227;28;20060;-79
2022/03/02 06:03:28;;;;;;;57.20;23.75;;;;;;;-0.38;53.67;100951.69;5033980;28;20057;-78
2022/03/02 06:05:56;;;;;;;56.35;24.08;;;;;;;-0.29;53.46;100952.25;5034505;28;20057;-77
2022/03/02 06:08:22;;;;;;;66.85;24.60;;;;;;;-0.18;53.49;100960.66;5035737;28;20527;-79
2022/03/02 06:10:50;;;;;;;54.40;24.83;;;;;;;-0.07;53.28;100956.19;5034561;28;20053;-77
2022/03/02 06:13:17;;;;;;;58.75;23.42;;;;;;;-0.02;52.91;100944.56;5052736;28;20487;-77
2022/03/02 06:15:44;;;;;;;63.70;23.95;;;;;;;0.10;53.20;100939.28;5053666;28;20480;-76
2022/03/02 06:18:11;;;;;;;61.92;23.30;;;;;;;0.21;52.92;100948.53;5053834;28;20060;-79
2022/03/02 06:20:41;;;;;;;70.57;24.02;;;;;;;0.31;52.24;100930.34;5054603;28;20626;-77
2022/03/02 06:23:09;;;;;;;66.65;24.20;;;;;;;0.42;52.34;100946.41;5053879;28;20139;-78
2022/03/02 06:25:36;;;;;;;63.47;25.45;;;;;;;0.54;52.25;100924.03;5045507;28;20053;-78
2022/03/02 06:28:03;;;;;;;55.55;23.85;;;;;;;0.65;51.81;100921.22;5037140;28;20045;-78
2022/03/02 06:30:30;;;;;;;63.80;23.80;;;;;;;0.67;51.51;100930.81;5052466;28;20110;-79
2022/03/02 06:32:57;;;;;;;56.80;24.60;;;;;;;0.80;51.30;100938.44;5053810;28;20103;-78
2022/03/02 06:35:24;;;;;;;58.05;22.83;;;;;;;0.90;51.43;100927.00;5053543;28;20060;-79
2022/03/02 06:37:51;;;;;;;64.07;26.98;;;;;;;0.99;51.23;100911.22;5045526;28;20077;-77
2022/03/02 06:40:22;;;;;;;73.47;25.00;;;;;;;1.10;50.81;100909.25;5046033;28;20500;-79
2022/03/02 06:43:07;;;;;;;61.63;24.65;;;;;;;1.35;50.64;100927.91;5036552;28;20053;-79
2022/03/02 06:45:44;;;;;;;62.63;25.35;;;;;;;1.36;50.27;100895.34;5047645;28;20057;-78
2022/03/02 06:48:16;;;;;;;58.60;26.02;;;;;;;1.66;49.85;100921.03;5052540;28;20049;-80
2022/03/02 06:50:45;;;;;;;60.60;25.17;;;;;;;1.75;49.74;100927.59;5053600;28;20099;-77
2022/03/02 06:53:14;;;;;;;66.18;27.75;;;;;;;1.84;49.56;100917.78;5053127;28;20056;-78
2022/03/02 06:55:44;;;;;;;63.75;28.67;;;;;;;1.79;49.60;100908.06;5053844;28;20053;-78
2022/03/02 06:58:22;;;;;;;67.30;28.52;;;;;;;1.71;49.17;100899.00;5053233;28;20079;-79
2022/03/02 07:00:53;;;;;;;64.93;28.25;;;;;;;1.72;49.36;100918.78;5053778;28;20053;-78
2022/03/02 07:03:28;;;;;;;61.80;29.08;;;;;;;1.60;49.26;100885.53;5052095;28;20045;-78
2022/03/02 07:05:55;;;;;;;72.78;27.90;;;;;;;1.67;49.69;100887.63;5041677;28;20045;-79
2022/03/02 07:08:24;;;;;;;68.93;30.50;;;;;;;1.95;49.03;100913.22;5032452;28;20488;-81
2022/03/02 07:10:51;;;;;;;76.53;31.63;;;;;;;2.08;48.79;100891.56;5034014;28;20545;-77
2022/03/02 07:13:18;;;;;;;64.40;27.70;;;;;;;2.15;48.63;100903.09;5038461;28;20064;-79
2022/03/02 07:15:46;;;;;;;57.13;24.83;;;;;;;2.15;48.45;100904.00;5062880;28;20065;-77
2022/03/02 07:18:15;;;;;;;52.83;21.35;;;;;;;2.23;48.22;100896.69;5062056;28;20053;-80
2022/03/02 07:20:46;;;;;;;46.15;20.92;;;;;;;2.24;48.13;100883.00;5065129;28;20496;-77
2022/03/02 07:23:15;;;;;;;44.67;19.38;;;;;;;2.29;47.41;100889.28;5059614;28;20083;-80
2022/03/02 07:25:44;;;;;;;42.30;19.67;;;;;;;2.35;47.36;100875.81;5053767;28;20063;-79
2022/03/02 07:28:14;;;;;;;45.70;20.05;;;;;;;2.53;47.21;100870.72;5051473;28;20314;-78
2022/03/02 07:30:45;;;;;;;47.58;19.90;;;;;;;2.66;46.98;100876.59;5053489;28;20049;-79
2022/03/02 07:33:15;;;;;;;44.83;19.83;;;;;;;2.82;46.50;100886.00;5053645;28;20075;-79
2022/03/02 07:35:48;;;;;;;45.60;19.88;;;;;;;2.86;46.53;100871.53;5052479;28;20493;-78
2022/03/02 07:38:15;;;;;;;51.25;20.33;;;;;;;2.87;46.35;100870.75;5053738;28;20106;-79
2022/03/02 07:40:42;;;;;;;43.45;19.20;;;;;;;3.04;46.09;100880.22;5052937;28;20088;-79
2022/03/02 07:43:09;;;;;;;46.20;19.15;;;;;;;3.06;45.91;100868.28;5050757;28;20045;-80
2022/03/02 07:45:36;;;;;;;45.38;19.63;;;;;;;2.95;45.97;100837.59;5036411;28;20053;-79
2022/03/02 07:48:03;;;;;;;50.40;19.38;;;;;;;3.11;45.65;100873.66;5045514;28;20140;-77
2022/03/02 07:50:30;;;;;;;56.67;24.02;;;;;;;3.02;45.48;100853.44;5054020;28;20057;-79
2022/03/02 07:53:00;;;;;;;47.50;18.48;;;;;;;3.04;45.16;100850.94;5052521;28;20052;-78
2022/03/02 07:55:28;;;;;;;44.25;18.45;;;;;;;3.06;45.12;100870.88;5052964;28;20049;-78
2022/03/02 07:57:55;;;;;;;47.72;18.27;;;;;;;2.99;44.60;100862.72;5054477;28;20143;-80
2022/03/02 08:00:23;;;;;;;43.50;17.75;;;;;;;3.02;44.57;100855.16;5058435;28;20076;-79
2022/03/02 08:02:53;;;;;;;44.72;16.63;;;;;;;3.14;44.38;100867.75;5059366;28;20068;-79
2022/03/02 08:05:21;;;;;;;42.47;16.90;;;;;;;3.12;44.30;100857.38;5071690;28;20075;-78
2022/03/02 08:07:49;;;;;;;52.97;19.58;;;;;;;3.02;44.41;100848.28;5073102;28;20075;-79
2022/03/02 08:10:17;;;;;;;45.85;16.98;;;;;;;3.05;44.17;100852.72;5072872;28;20065;-80
2022/03/02 08:12:45;;;;;;;50.20;18.20;;;;;;;2.96;44.32;100829.91;5070870;28;20083;-78
2022/03/02 08:15:12;;;;;;;46.08;18.63;;;;;;;3.05;44.21;100842.38;5049711;28;20099;-79
2022/03/02 08:17:39;;;;;;;46.10;18.65;;;;;;;3.01;43.69;100820.72;5052450;28;20056;-79
2022/03/02 08:20:07;;;;;;;50.28;18.52;;;;;;;3.10;44.08;100829.69;5052600;28;20212;-79
2022/03/02 08:22:44;;;;;;;42.53;14.32;;;;;;;3.03;43.24;100806.19;5052446;28;20060;-79
2022/03/02 08:25:11;;;;;;;37.83;13.85;;;;;;;3.26;43.59;100840.84;5055454;28;20052;-80
2022/03/02 08:27:43;;;;;;;28.13;11.85;;;;;;;3.26;42.99;100819.31;5055969;28;20091;-79
2022/03/02 08:30:11;;;;;;;31.58;11.07;;;;;;;3.33;43.34;100829.09;5056004;28;20045;-79
2022/03/02 08:32:44;;;;;;;25.45;11.90;;;;;;;3.21;42.92;100788.09;5056110;28;20080;-79
2022/03/02 08:35:12;;;;;;;28.75;10.25;;;;;;;3.17;42.47;100770.69;5055932;28;20049;-80
2022/03/02 08:37:40;;;;;;;22.23;9.50;;;;;;;3.46;42.23;100808.25;5056211;28;20067;-81
2022/03/02 08:40:08;;;;;;;25.33;9.30;;;;;;;3.52;41.89;100794.72;5055755;28;20140;-78
2022/03/02 08:42:36;;;;;;;18.60;8.35;;;;;;;3.63;41.76;100809.00;5055388;28;20114;-79
2022/03/02 08:45:03;;;;;;;17.20;7.57;;;;;;;3.67;41.93;100804.88;5055814;28;20088;-80
2022/03/02 08:47:31;;;;;;;17.25;7.80;;;;;;;3.69;41.35;100796.38;5056368;28;20080;-80
2022/03/02 08:49:58;;;;;;;17.17;7.82;;;;;;;3.85;40.74;100797.06;5056039;28;20060;-79
2022/03/02 08:52:27;;;;;;;15.50;7.32;;;;;;;3.98;40.57;100785.56;5055355;28;20052;-78
2022/03/02 08:54:56;;;;;;;19.45;7.97;;;;;;;4.01;41.01;100783.13;5054190;28;20103;-80
2022/03/02 08:57:24;;;;;;;19.52;7.25;;;;;;;3.96;40.77;100757.09;5037970;28;20061;-80
2022/03/02 08:59:54;;;;;;;19.15;7.13;;;;;;;4.15;39.92;100770.81;5036496;28;20509;-79
2022/03/02 09:02:29;;;;;;;15.15;6.88;;;;;;;4.06;39.76;100740.25;5037276;28;20045;-80
2022/03/02 09:05:00;;;;;;;15.90;7.55;;;;;;;4.27;39.63;100771.34;5057303;28;20131;-78
2022/03/02 09:07:28;;;;;;;13.68;6.22;;;;;;;4.21;39.98;100779.72;5056105;28;20440;-77
2022/03/02 09:09:57;;;;;;;16.33;6.43;;;;;;;4.14;39.35;100762.19;5054963;28;20060;-78
2022/03/02 09:12:25;;;;;;;14.60;6.07;;;;;;;4.27;39.71;100759.28;5042106;28;20057;-78
2022/03/02 09:14:52;;;;;;;14.98;6.30;;;;;;;4.35;38.92;100746.69;5034688;28;20081;-79
2022/03/02 09:17:24;;;;;;;11.65;6.20;;;;;;;4.51;38.80;100766.34;5050693;28;20559;-80
2022/03/02 09:19:53;;;;;;;17.95;6.55;;;;;;;4.56;38.74;100751.91;5041325;28;20536;-79
2022/03/02 09:22:23;;;;;;;13.95;7.70;;;;;;;4.66;38.61;100754.03;5053679;28;20060;-80
2022/03/02 09:24:50;;;;;;;16.58;6.25;;;;;;;4.76;38.56;100736.31;5052499;28;20103;-80
2022/03/02 09:27:18;;;;;;;13.80;6.55;;;;;;;4.78;38.32;100738.13;5053562;28;20053;-78
2022/03/02 09:29:49;;;;;;;15.18;5.90;;;;;;;4.74;37.74;100738.81;5051586;28;20049;-78
2022/03/02 09:32:16;;;;;;;;;;;;;;;4.57;39.36;100732.06;5034368;28;20053;-76
2022/03/02 09:34:45;;;;;;;12.43;5.40;;;;;;;4.75;38.32;100729.34;5050822;28;19924;-79
2022/03/02 09:37:17;;;;;;;14.88;7.28;;;;;;;4.81;37.52;100721.84;5051510;28;20055;-80
2022/03/02 09:39:50;;;;;;;17.38;6.15;;;;;;;4.87;37.16;100722.97;5054561;28;20063;-78
2022/03/02 09:42:30;;;;;;;16.27;7.13;;;;;;;4.90;37.21;100717.00;5054386;28;20102;-78
2022/03/02 09:45:06;;;;;;;15.25;6.45;;;;;;;4.85;37.49;100711.66;5054222;28;20452;-78
2022/03/02 09:47:43;;;;;;;16.02;6.80;;;;;;;4.89;36.97;100698.00;5054319;28;20045;-78
2022/03/02 09:50:14;;;;;;;13.77;5.93;;;;;;;4.93;36.87;100719.75;5054437;28;20049;-78
2022/03/02 09:52:42;;;;;;;12.20;5.22;;;;;;;4.80;37.32;100720.09;5054213;28;20057;-78
2022/03/02 09:55:13;;;;;;;10.93;5.10;;;;;;;4.89;36.79;100715.25;5054368;28;20053;-78
2022/03/02 09:57:56;;;;;;;11.98;4.10;;;;;;;4.87;36.53;100710.03;5052736;28;20064;-78
2022/03/02 10:00:26;;;;;;;7.65;3.83;;;;;;;4.81;35.98;100695.94;5054024;28;20059;-77
2022/03/02 10:03:10;;;;;;;9.85;4.00;;;;;;;4.80;35.72;100707.13;5054325;28;20053;-79
2022/03/02 10:05:44;;;;;;;11.88;4.38;;;;;;;4.85;35.83;100700.44;5054089;28;20049;-78
2022/03/02 10:08:11;;;;;;;10.32;3.80;;;;;;;4.84;34.99;100680.53;5054358;28;20158;-78
2022/03/02 10:10:40;;;;;;;6.13;3.70;;;;;;;4.86;35.20;100673.69;5053580;28;20053;-77
2022/03/02 10:13:12;;;;;;;4.82;3.03;;;;;;;4.95;34.82;100668.00;5053740;28;20063;-77
2022/03/02 10:15:41;;;;;;;6.80;3.50;;;;;;;4.88;34.68;100646.16;5052769;28;20819;-78
2022/03/02 10:18:18;;;;;;;6.00;3.45;;;;;;;4.97;34.05;100651.72;5051388;28;20147;-77
2022/03/02 10:20:49;;;;;;;5.88;3.00;;;;;;;5.16;34.60;100666.22;5037386;28;20501;-77
2022/03/02 10:23:39;;;;;;;6.22;3.30;;;;;;;5.16;34.26;100644.63;5041183;28;20424;-76
2022/03/02 10:26:18;;;;;;;5.95;3.10;;;;;;;5.36;34.00;100661.81;5032918;28;20057;-79
2022/03/02 10:28:48;;;;;;;9.73;3.20;;;;;;;5.36;33.80;100658.34;5034152;28;20081;-79
2022/03/02 10:32:08;;;;;;;7.57;3.83;;;;;;;4.90;34.38;100605.69;5033962;28;20053;-79
2022/03/02 10:40:24;;;;;;;9.88;4.40;;;;;;;4.86;34.20;100577.91;4955599;29;20487;-79
2022/03/02 10:44:00;;;;;;;7.35;3.67;;;;;;;5.43;33.94;100640.47;4927286;28;20059;-80
2022/03/02 10:46:33;;;;;;;7.93;3.90;;;;;;;5.51;33.04;100635.59;4975610;28;20054;-80
2022/03/02 10:49:23;;;;;;;7.28;3.58;;;;;;;5.49;32.88;100619.09;4991085;28;20082;-81
2022/03/02 10:55:26;;;;;;;13.25;4.97;;;;;;;5.71;32.86;100600.00;4934820;29;20059;-80
2022/03/02 10:58:06;;;;;;;12.75;4.82;;;;;;;5.24;32.90;100549.97;4934706;29;20162;-78
2022/03/02 11:00:38;;;;;;;11.07;3.92;;;;;;;5.71;32.47;100637.16;4935376;29;20520;-77
2022/03/02 11:03:14;;;;;;;8.13;3.95;;;;;;;5.82;32.45;100637.53;4942470;29;20146;-79
2022/03/02 11:05:46;;;;;;;8.90;3.92;;;;;;;5.95;32.61;100615.53;4941661;29;20075;-81
2022/03/02 11:08:45;;;;;;;8.90;3.67;;;;;;;5.97;32.98;100611.28;4926914;29;20156;-80
2022/03/02 11:11:37;;;;;;;7.03;3.65;;;;;;;5.99;31.75;100606.16;4920585;29;20520;-79
2022/03/02 11:14:10;;;;;;;11.07;4.13;;;;;;;5.96;31.94;100575.84;4992812;28;20058;-80
2022/03/02 11:16:45;;;;;;;12.38;6.10;;;;;;;6.21;31.75;100606.03;4974962;28;20435;-78
2022/03/02 11:19:42;;;;;;;9.80;4.20;;;;;;;6.14;31.39;100599.75;4991681;28;20545;-81
2022/03/02 11:22:20;;;;;;;7.75;4.30;;;;;;;5.95;32.07;100605.16;4991413;28;20058;-80
2022/03/02 11:24:59;;;;;;;7.45;4.10;;;;;;;5.99;32.08;100606.16;4997093;28;20058;-80
2022/03/02 11:27:41;;;;;;;7.68;4.50;;;;;;;6.03;32.29;100600.25;5006879;28;20054;-78
2022/03/02 11:30:17;;;;;;;10.02;4.43;;;;;;;6.05;32.08;100588.22;5009099;28;20061;-80
2022/03/02 11:32:50;;;;;;;8.35;4.50;;;;;;;6.04;32.07;100582.13;5035416;28;20124;-80
2022/03/02 11:36:00;;;;;;;13.55;5.80;;;;;;;6.17;32.12;100592.91;4975457;28;20082;-80
2022/03/02 11:39:12;;;;;;;16.27;6.22;;;;;;;6.23;32.57;100574.97;4988169;28;20221;-79
2022/03/02 11:42:42;;;;;;;17.35;6.97;;;;;;;5.81;32.08;100505.25;4973380;28;20074;-79